sensor_id;sensor_type;location;lat;lon;timestamp;pressure;altitude;pressure_sealevel;temperature;humidity
77749;BME280;66938;52.084;5.228;2024-03-02T00:00:39;99848.0;;;9.78;97.71
77749;BME280;66938;52.084;5.228;2024-03-02T00:02:18;99845.0;;;9.77;97.97
77749;BME280;66938;52.084;5.228;2024-03-02T00:05:30;99841.0;;;9.63;98.74
77749;BME280;66938;52.084;5.228;2024-03-02T00:07:07;99851.0;;;9.86;99.03
77749;BME280;66938;52.084;5.228;2024-03-02T00:08:43;99859.0;;;9.93;98.71
77749;BME280;66938;52.084;5.228;2024-03-02T00:10:20;99865.0;;;10.06;98.46
77749;BME280;66938;52.084;5.228;2024-03-02T00:13:36;99873.0;;;9.94;98.29
77749;BME280;66938;52.084;5.228;2024-03-02T00:15:34;99871.0;;;9.99;97.76
77749;BME280;66938;52.084;5.228;2024-03-02T00:17:21;99880.0;;;10.07;97.1
77749;BME280;66938;52.084;5.228;2024-03-02T00:19:02;99891.0;;;9.99;97.74
77749;BME280;66938;52.084;5.228;2024-03-02T00:22:15;99939.0;;;10.01;98.43
77749;BME280;66938;52.084;5.228;2024-03-02T00:23:53;99959.0;;;9.83;100.0
77749;BME280;66938;52.084;5.228;2024-03-02T00:25:36;99962.0;;;9.72;100.0
77749;BME280;66938;52.084;5.228;2024-03-02T00:27:14;99964.0;;;9.64;100.0
77749;BME280;66938;52.084;5.228;2024-03-02T00:30:51;99960.0;;;9.59;100.0
77749;BME280;66938;52.084;5.228;2024-03-02T00:32:27;99956.0;;;9.67;100.0
77749;BME280;66938;52.084;5.228;2024-03-02T00:34:13;99958.0;;;9.41;100.0
77749;BME280;66938;52.084;5.228;2024-03-02T00:35:50;99958.0;;;9.48;100.0
77749;BME280;66938;52.084;5.228;2024-03-02T00:37:27;99960.0;;;9.35;100.0
77749;BME280;66938;52.084;5.228;2024-03-02T00:40:39;99959.0;;;9.4;100.0
77749;BME280;66938;52.084;5.228;2024-03-02T00:42:15;99960.0;;;9.33;100.0
77749;BME280;66938;52.084;5.228;2024-03-02T00:43:57;99957.0;;;9.39;100.0
77749;BME280;66938;52.084;5.228;2024-03-02T00:47:10;99961.0;;;9.4;100.0
77749;BME280;66938;52.084;5.228;2024-03-02T00:48:51;99963.0;;;9.31;100.0
77749;BME280;66938;52.084;5.228;2024-03-02T00:50:29;99966.0;;;9.16;100.0
77749;BME280;66938;52.084;5.228;2024-03-02T00:52:06;99957.0;;;8.99;100.0
77749;BME280;66938;52.084;5.228;2024-03-02T00:55:20;99956.0;;;9.03;100.0
77749;BME280;66938;52.084;5.228;2024-03-02T00:57:00;99951.0;;;9.09;100.0
77749;BME280;66938;52.084;5.228;2024-03-02T00:58:36;99962.0;;;9.08;100.0
77749;BME280;66938;52.084;5.228;2024-03-02T01:01:49;99964.0;;;8.99;100.0
77749;BME280;66938;52.084;5.228;2024-03-02T01:03:25;99973.0;;;9.03;100.0
77749;BME280;66938;52.084;5.228;2024-03-02T01:05:01;99967.0;;;9.06;100.0
77749;BME280;66938;52.084;5.228;2024-03-02T01:08:13;99961.0;;;8.91;100.0
77749;BME280;66938;52.084;5.228;2024-03-02T01:09:50;99955.0;;;8.96;100.0
77749;BME280;66938;52.084;5.228;2024-03-02T01:11:26;99958.0;;;8.74;100.0
77749;BME280;66938;52.084;5.228;2024-03-02T01:13:02;99961.0;;;8.85;100.0
77749;BME280;66938;52.084;5.228;2024-03-02T01:16:14;99977.0;;;8.83;100.0
77749;BME280;66938;52.084;5.228;2024-03-02T01:17:50;99970.0;;;8.85;100.0
77749;BME280;66938;52.084;5.228;2024-03-02T01:19:26;99977.0;;;8.76;100.0
77749;BME280;66938;52.084;5.228;2024-03-02T01:22:39;99978.0;;;8.74;100.0
77749;BME280;66938;52.084;5.228;2024-03-02T01:24:16;99980.0;;;8.64;100.0
77749;BME280;66938;52.084;5.228;2024-03-02T01:25:52;99980.0;;;8.77;100.0
77749;BME280;66938;52.084;5.228;2024-03-02T01:29:05;99983.0;;;8.8;100.0
77749;BME280;66938;52.084;5.228;2024-03-02T01:30:41;99978.0;;;8.74;100.0
77749;BME280;66938;52.084;5.228;2024-03-02T01:32:17;99980.0;;;8.67;100.0
77749;BME280;66938;52.084;5.228;2024-03-02T01:33:53;99985.0;;;8.73;100.0
77749;BME280;66938;52.084;5.228;2024-03-02T01:37:05;99995.0;;;8.59;100.0
77749;BME280;66938;52.084;5.228;2024-03-02T01:38:42;99991.0;;;8.55;100.0
77749;BME280;66938;52.084;5.228;2024-03-02T01:40:18;99989.0;;;8.65;100.0
77749;BME280;66938;52.084;5.228;2024-03-02T01:43:30;99995.0;;;8.65;100.0
77749;BME280;66938;52.084;5.228;2024-03-02T01:45:07;99993.0;;;8.67;100.0
77749;BME280;66938;52.084;5.228;2024-03-02T01:46:44;99998.0;;;8.74;100.0
77749;BME280;66938;52.084;5.228;2024-03-02T01:49:56;100005.0;;;8.69;100.0
77749;BME280;66938;52.084;5.228;2024-03-02T01:51:32;100009.0;;;8.74;100.0
77749;BME280;66938;52.084;5.228;2024-03-02T01:53:09;100001.0;;;8.69;100.0
77749;BME280;66938;52.084;5.228;2024-03-02T01:56:21;100009.0;;;8.76;100.0
77749;BME280;66938;52.084;5.228;2024-03-02T01:57:57;100014.0;;;8.73;100.0
77749;BME280;66938;52.084;5.228;2024-03-02T01:59:33;100006.0;;;8.61;100.0
77749;BME280;66938;52.084;5.228;2024-03-02T02:01:09;99993.0;;;8.6;100.0
77749;BME280;66938;52.084;5.228;2024-03-02T02:04:21;99991.0;;;8.68;100.0
77749;BME280;66938;52.084;5.228;2024-03-02T02:05:57;99999.0;;;8.74;100.0
77749;BME280;66938;52.084;5.228;2024-03-02T02:07:34;99997.0;;;8.76;100.0
77749;BME280;66938;52.084;5.228;2024-03-02T02:10:47;100001.0;;;8.64;100.0
77749;BME280;66938;52.084;5.228;2024-03-02T02:12:23;100007.0;;;8.67;100.0
77749;BME280;66938;52.084;5.228;2024-03-02T02:14:00;100013.0;;;8.63;100.0
77749;BME280;66938;52.084;5.228;2024-03-02T02:17:12;100014.0;;;8.61;100.0
77749;BME280;66938;52.084;5.228;2024-03-02T02:18:48;100015.0;;;8.53;100.0
77749;BME280;66938;52.084;5.228;2024-03-02T02:20:25;99998.0;;;8.5;100.0
77749;BME280;66938;52.084;5.228;2024-03-02T02:22:01;99994.0;;;8.49;100.0
77749;BME280;66938;52.084;5.228;2024-03-02T02:25:14;99998.0;;;8.64;100.0
77749;BME280;66938;52.084;5.228;2024-03-02T02:26:50;100000.0;;;8.51;100.0
77749;BME280;66938;52.084;5.228;2024-03-02T02:28:26;99990.0;;;8.43;100.0
77749;BME280;66938;52.084;5.228;2024-03-02T02:31:40;99985.0;;;8.48;100.0
77749;BME280;66938;52.084;5.228;2024-03-02T02:33:16;99996.0;;;8.48;100.0
77749;BME280;66938;52.084;5.228;2024-03-02T02:34:52;100010.0;;;8.47;100.0
77749;BME280;66938;52.084;5.228;2024-03-02T02:38:05;100003.0;;;8.38;100.0
77749;BME280;66938;52.084;5.228;2024-03-02T02:39:41;100005.0;;;8.41;100.0
77749;BME280;66938;52.084;5.228;2024-03-02T02:41:17;100006.0;;;8.39;100.0
77749;BME280;66938;52.084;5.228;2024-03-02T02:44:29;99990.0;;;8.48;100.0
77749;BME280;66938;52.084;5.228;2024-03-02T02:46:05;99997.0;;;8.38;100.0
77749;BME280;66938;52.084;5.228;2024-03-02T02:47:42;100010.0;;;8.55;100.0
77749;BME280;66938;52.084;5.228;2024-03-02T02:49:19;100000.0;;;8.53;100.0
77749;BME280;66938;52.084;5.228;2024-03-02T02:52:31;100000.0;;;8.18;100.0
77749;BME280;66938;52.084;5.228;2024-03-02T02:54:08;99998.0;;;8.14;100.0
77749;BME280;66938;52.084;5.228;2024-03-02T02:55:44;100003.0;;;8.09;100.0
77749;BME280;66938;52.084;5.228;2024-03-02T02:58:56;100000.0;;;8.2;100.0
77749;BME280;66938;52.084;5.228;2024-03-02T03:00:32;100000.0;;;8.31;100.0
77749;BME280;66938;52.084;5.228;2024-03-02T03:02:09;100003.0;;;8.34;100.0
77749;BME280;66938;52.084;5.228;2024-03-02T03:05:22;100005.0;;;8.33;100.0
77749;BME280;66938;52.084;5.228;2024-03-02T03:06:58;100008.0;;;8.41;100.0
77749;BME280;66938;52.084;5.228;2024-03-02T03:08:34;100005.0;;;8.31;100.0
77749;BME280;66938;52.084;5.228;2024-03-02T03:10:10;99998.0;;;8.3;100.0
77749;BME280;66938;52.084;5.228;2024-03-02T03:13:22;99998.0;;;8.43;100.0
77749;BME280;66938;52.084;5.228;2024-03-02T03:14:59;100000.0;;;8.33;100.0
77749;BME280;66938;52.084;5.228;2024-03-02T03:16:36;100008.0;;;8.32;100.0
77749;BME280;66938;52.084;5.228;2024-03-02T03:19:48;100002.0;;;8.35;100.0
77749;BME280;66938;52.084;5.228;2024-03-02T03:21:24;100005.0;;;8.13;100.0
77749;BME280;66938;52.084;5.228;2024-03-02T03:23:00;100006.0;;;8.26;100.0
77749;BME280;66938;52.084;5.228;2024-03-02T03:26:12;100007.0;;;8.08;100.0
77749;BME280;66938;52.084;5.228;2024-03-02T03:27:48;100002.0;;;8.19;100.0
77749;BME280;66938;52.084;5.228;2024-03-02T03:29:24;100001.0;;;8.1;100.0
77749;BME280;66938;52.084;5.228;2024-03-02T03:32:37;100012.0;;;8.23;100.0
77749;BME280;66938;52.084;5.228;2024-03-02T03:34:13;100013.0;;;8.39;100.0
77749;BME280;66938;52.084;5.228;2024-03-02T03:35:49;100011.0;;;8.33;100.0
77749;BME280;66938;52.084;5.228;2024-03-02T03:37:25;100010.0;;;8.3;100.0
77749;BME280;66938;52.084;5.228;2024-03-02T03:40:40;100014.0;;;8.45;100.0
77749;BME280;66938;52.084;5.228;2024-03-02T03:42:17;100018.0;;;8.31;100.0
77749;BME280;66938;52.084;5.228;2024-03-02T03:43:54;100018.0;;;8.42;100.0
77749;BME280;66938;52.084;5.228;2024-03-02T03:47:06;100018.0;;;8.23;100.0
77749;BME280;66938;52.084;5.228;2024-03-02T03:48:42;100023.0;;;8.14;100.0
77749;BME280;66938;52.084;5.228;2024-03-02T03:50:18;100026.0;;;8.2;100.0
77749;BME280;66938;52.084;5.228;2024-03-02T03:53:30;100031.0;;;8.11;100.0
77749;BME280;66938;52.084;5.228;2024-03-02T03:55:07;100030.0;;;8.13;100.0
77749;BME280;66938;52.084;5.228;2024-03-02T03:56:44;100031.0;;;8.3;100.0
77749;BME280;66938;52.084;5.228;2024-03-02T03:58:20;100027.0;;;8.32;100.0
77749;BME280;66938;52.084;5.228;2024-03-02T04:01:32;100030.0;;;8.31;100.0
77749;BME280;66938;52.084;5.228;2024-03-02T04:03:08;100033.0;;;8.39;100.0
77749;BME280;66938;52.084;5.228;2024-03-02T04:04:44;100031.0;;;8.35;100.0
77749;BME280;66938;52.084;5.228;2024-03-02T04:07:56;100034.0;;;8.3;100.0
77749;BME280;66938;52.084;5.228;2024-03-02T04:09:32;100039.0;;;8.41;100.0
77749;BME280;66938;52.084;5.228;2024-03-02T04:11:09;100037.0;;;8.4;100.0
77749;BME280;66938;52.084;5.228;2024-03-02T04:14:21;100035.0;;;8.45;100.0
77749;BME280;66938;52.084;5.228;2024-03-02T04:15:57;100045.0;;;8.48;100.0
77749;BME280;66938;52.084;5.228;2024-03-02T04:17:33;100047.0;;;8.43;100.0
77749;BME280;66938;52.084;5.228;2024-03-02T04:19:09;100044.0;;;8.48;100.0
77749;BME280;66938;52.084;5.228;2024-03-02T04:22:21;100039.0;;;8.43;100.0
77749;BME280;66938;52.084;5.228;2024-03-02T04:23:57;100042.0;;;8.45;100.0
77749;BME280;66938;52.084;5.228;2024-03-02T04:25:34;100042.0;;;8.56;100.0
77749;BME280;66938;52.084;5.228;2024-03-02T04:28:46;100048.0;;;8.45;100.0
77749;BME280;66938;52.084;5.228;2024-03-02T04:30:22;100041.0;;;8.39;100.0
77749;BME280;66938;52.084;5.228;2024-03-02T04:31:58;100041.0;;;8.41;100.0
77749;BME280;66938;52.084;5.228;2024-03-02T04:35:10;100041.0;;;8.57;100.0
77749;BME280;66938;52.084;5.228;2024-03-02T04:36:46;100038.0;;;8.52;100.0
77749;BME280;66938;52.084;5.228;2024-03-02T04:38:22;100040.0;;;8.44;100.0
77749;BME280;66938;52.084;5.228;2024-03-02T04:41:35;100043.0;;;8.5;100.0
77749;BME280;66938;52.084;5.228;2024-03-02T04:43:11;100050.0;;;8.51;100.0
77749;BME280;66938;52.084;5.228;2024-03-02T04:44:47;100048.0;;;8.47;100.0
77749;BME280;66938;52.084;5.228;2024-03-02T04:46:23;100050.0;;;8.5;100.0
77749;BME280;66938;52.084;5.228;2024-03-02T04:49:35;100053.0;;;8.48;100.0
77749;BME280;66938;52.084;5.228;2024-03-02T04:51:11;100052.0;;;8.22;100.0
77749;BME280;66938;52.084;5.228;2024-03-02T04:52:47;100052.0;;;8.41;100.0
77749;BME280;66938;52.084;5.228;2024-03-02T04:56:00;100052.0;;;8.2;100.0
77749;BME280;66938;52.084;5.228;2024-03-02T04:57:36;100058.0;;;8.35;100.0
77749;BME280;66938;52.084;5.228;2024-03-02T04:59:15;100062.0;;;8.31;100.0
77749;BME280;66938;52.084;5.228;2024-03-02T05:02:27;100068.0;;;8.18;100.0
77749;BME280;66938;52.084;5.228;2024-03-02T05:04:03;100075.0;;;8.09;100.0
77749;BME280;66938;52.084;5.228;2024-03-02T05:05:39;100069.0;;;8.1;100.0
77749;BME280;66938;52.084;5.228;2024-03-02T05:07:15;100071.0;;;7.98;100.0
77749;BME280;66938;52.084;5.228;2024-03-02T05:10:28;100075.0;;;8.02;100.0
77749;BME280;66938;52.084;5.228;2024-03-02T05:12:04;100071.0;;;8.02;100.0
77749;BME280;66938;52.084;5.228;2024-03-02T05:13:41;100072.0;;;8.06;100.0
77749;BME280;66938;52.084;5.228;2024-03-02T05:16:53;100070.0;;;8.03;100.0
77749;BME280;66938;52.084;5.228;2024-03-02T05:18:29;100077.0;;;8.0;100.0
77749;BME280;66938;52.084;5.228;2024-03-02T05:20:07;100073.0;;;7.92;100.0
77749;BME280;66938;52.084;5.228;2024-03-02T05:23:19;100077.0;;;7.99;100.0
77749;BME280;66938;52.084;5.228;2024-03-02T05:24:56;100083.0;;;7.9;100.0
77749;BME280;66938;52.084;5.228;2024-03-02T05:26:33;100086.0;;;7.83;100.0
77749;BME280;66938;52.084;5.228;2024-03-02T05:29:45;100083.0;;;7.59;100.0
77749;BME280;66938;52.084;5.228;2024-03-02T05:31:21;100090.0;;;7.59;100.0
77749;BME280;66938;52.084;5.228;2024-03-02T05:32:57;100083.0;;;7.77;100.0
77749;BME280;66938;52.084;5.228;2024-03-02T05:34:33;100089.0;;;7.89;100.0
77749;BME280;66938;52.084;5.228;2024-03-02T05:37:45;100091.0;;;7.91;100.0
77749;BME280;66938;52.084;5.228;2024-03-02T05:39:22;100089.0;;;7.94;100.0
77749;BME280;66938;52.084;5.228;2024-03-02T05:40:58;100085.0;;;8.02;100.0
77749;BME280;66938;52.084;5.228;2024-03-02T05:44:10;100089.0;;;8.0;100.0
77749;BME280;66938;52.084;5.228;2024-03-02T05:45:46;100091.0;;;8.03;100.0
77749;BME280;66938;52.084;5.228;2024-03-02T05:47:22;100095.0;;;7.89;100.0
77749;BME280;66938;52.084;5.228;2024-03-02T05:50:35;100100.0;;;7.85;100.0
77749;BME280;66938;52.084;5.228;2024-03-02T05:52:11;100100.0;;;7.79;100.0
77749;BME280;66938;52.084;5.228;2024-03-02T05:53:48;100101.0;;;7.97;100.0
77749;BME280;66938;52.084;5.228;2024-03-02T05:55:24;100102.0;;;7.99;100.0
77749;BME280;66938;52.084;5.228;2024-03-02T05:58:36;100106.0;;;7.97;100.0
77749;BME280;66938;52.084;5.228;2024-03-02T06:00:12;100106.0;;;7.96;100.0
77749;BME280;66938;52.084;5.228;2024-03-02T06:01:49;100105.0;;;8.09;100.0
77749;BME280;66938;52.084;5.228;2024-03-02T06:05:01;100110.0;;;8.03;100.0
77749;BME280;66938;52.084;5.228;2024-03-02T06:06:37;100105.0;;;7.99;100.0
77749;BME280;66938;52.084;5.228;2024-03-02T06:08:13;100112.0;;;8.08;100.0
77749;BME280;66938;52.084;5.228;2024-03-02T06:11:26;100109.0;;;8.22;100.0
77749;BME280;66938;52.084;5.228;2024-03-02T06:13:02;100114.0;;;8.18;100.0
77749;BME280;66938;52.084;5.228;2024-03-02T06:14:38;100119.0;;;8.22;100.0
77749;BME280;66938;52.084;5.228;2024-03-02T06:17:50;100120.0;;;8.06;100.0
77749;BME280;66938;52.084;5.228;2024-03-02T06:19:26;100119.0;;;8.23;100.0
77749;BME280;66938;52.084;5.228;2024-03-02T06:21:03;100117.0;;;8.13;100.0
77749;BME280;66938;52.084;5.228;2024-03-02T06:22:39;100125.0;;;8.18;100.0
77749;BME280;66938;52.084;5.228;2024-03-02T06:25:52;100128.0;;;8.18;100.0
77749;BME280;66938;52.084;5.228;2024-03-02T06:27:28;100128.0;;;8.14;100.0
77749;BME280;66938;52.084;5.228;2024-03-02T06:29:04;100134.0;;;8.17;100.0
77749;BME280;66938;52.084;5.228;2024-03-02T06:32:16;100135.0;;;8.28;100.0
77749;BME280;66938;52.084;5.228;2024-03-02T06:33:52;100142.0;;;8.22;100.0
77749;BME280;66938;52.084;5.228;2024-03-02T06:35:28;100142.0;;;8.32;100.0
77749;BME280;66938;52.084;5.228;2024-03-02T06:38:40;100138.0;;;8.41;100.0
77749;BME280;66938;52.084;5.228;2024-03-02T06:40:17;100133.0;;;8.48;100.0
77749;BME280;66938;52.084;5.228;2024-03-02T06:41:53;100142.0;;;8.24;100.0
77749;BME280;66938;52.084;5.228;2024-03-02T06:43:29;100140.0;;;8.31;100.0
77749;BME280;66938;52.084;5.228;2024-03-02T06:46:42;100136.0;;;8.4;100.0
77749;BME280;66938;52.084;5.228;2024-03-02T06:48:18;100136.0;;;8.17;100.0
77749;BME280;66938;52.084;5.228;2024-03-02T06:49:55;100138.0;;;8.28;100.0
77749;BME280;66938;52.084;5.228;2024-03-02T06:53:09;100141.0;;;8.18;100.0
77749;BME280;66938;52.084;5.228;2024-03-02T06:54:46;100145.0;;;8.31;100.0
77749;BME280;66938;52.084;5.228;2024-03-02T06:56:22;100131.0;;;8.26;100.0
77749;BME280;66938;52.084;5.228;2024-03-02T06:59:34;100135.0;;;8.33;100.0
77749;BME280;66938;52.084;5.228;2024-03-02T07:01:10;100143.0;;;8.24;100.0
77749;BME280;66938;52.084;5.228;2024-03-02T07:02:46;100143.0;;;8.31;100.0
77749;BME280;66938;52.084;5.228;2024-03-02T07:05:58;100135.0;;;8.28;100.0
77749;BME280;66938;52.084;5.228;2024-03-02T07:07:34;100140.0;;;8.22;100.0
77749;BME280;66938;52.084;5.228;2024-03-02T07:09:11;100137.0;;;8.22;100.0
77749;BME280;66938;52.084;5.228;2024-03-02T07:10:47;100143.0;;;8.26;100.0
77749;BME280;66938;52.084;5.228;2024-03-02T07:13:59;100146.0;;;8.19;100.0
77749;BME280;66938;52.084;5.228;2024-03-02T07:15:38;100143.0;;;8.14;100.0
77749;BME280;66938;52.084;5.228;2024-03-02T07:17:14;100146.0;;;8.17;100.0
77749;BME280;66938;52.084;5.228;2024-03-02T07:20:26;100150.0;;;8.13;100.0
77749;BME280;66938;52.084;5.228;2024-03-02T07:22:06;100148.0;;;8.28;100.0
77749;BME280;66938;52.084;5.228;2024-03-02T07:23:42;100153.0;;;8.34;100.0
77749;BME280;66938;52.084;5.228;2024-03-02T07:26:54;100156.0;;;8.28;100.0
77749;BME280;66938;52.084;5.228;2024-03-02T07:28:31;100162.0;;;8.22;100.0
77749;BME280;66938;52.084;5.228;2024-03-02T07:30:07;100160.0;;;8.25;100.0
77749;BME280;66938;52.084;5.228;2024-03-02T07:31:44;100164.0;;;8.49;100.0
77749;BME280;66938;52.084;5.228;2024-03-02T07:34:56;100171.0;;;8.38;100.0
77749;BME280;66938;52.084;5.228;2024-03-02T07:36:32;100171.0;;;8.41;100.0
77749;BME280;66938;52.084;5.228;2024-03-02T07:38:08;100172.0;;;8.4;100.0
77749;BME280;66938;52.084;5.228;2024-03-02T07:41:21;100178.0;;;8.48;100.0
77749;BME280;66938;52.084;5.228;2024-03-02T07:42:57;100175.0;;;8.41;100.0
77749;BME280;66938;52.084;5.228;2024-03-02T07:44:33;100180.0;;;8.35;100.0
77749;BME280;66938;52.084;5.228;2024-03-02T07:47:45;100187.0;;;8.41;100.0
77749;BME280;66938;52.084;5.228;2024-03-02T07:49:25;100186.0;;;8.38;100.0
77749;BME280;66938;52.084;5.228;2024-03-02T07:51:01;100185.0;;;8.34;100.0
77749;BME280;66938;52.084;5.228;2024-03-02T07:54:13;100183.0;;;8.22;100.0
77749;BME280;66938;52.084;5.228;2024-03-02T07:55:49;100180.0;;;8.27;100.0
77749;BME280;66938;52.084;5.228;2024-03-02T07:57:25;100182.0;;;8.38;100.0
77749;BME280;66938;52.084;5.228;2024-03-02T08:00:39;100187.0;;;8.19;100.0
77749;BME280;66938;52.084;5.228;2024-03-02T08:02:15;100185.0;;;8.42;100.0
77749;BME280;66938;52.084;5.228;2024-03-02T08:03:51;100194.0;;;8.36;100.0
77749;BME280;66938;52.084;5.228;2024-03-02T08:07:04;100191.0;;;8.31;100.0
77749;BME280;66938;52.084;5.228;2024-03-02T08:08:40;100194.0;;;8.22;100.0
77749;BME280;66938;52.084;5.228;2024-03-02T08:10:16;100198.0;;;8.14;100.0
77749;BME280;66938;52.084;5.228;2024-03-02T08:11:52;100200.0;;;8.28;100.0
77749;BME280;66938;52.084;5.228;2024-03-02T08:15:06;100195.0;;;8.22;100.0
77749;BME280;66938;52.084;5.228;2024-03-02T08:16:42;100196.0;;;8.23;100.0
77749;BME280;66938;52.084;5.228;2024-03-02T08:18:18;100199.0;;;8.3;100.0
77749;BME280;66938;52.084;5.228;2024-03-02T08:21:33;100198.0;;;8.23;100.0
77749;BME280;66938;52.084;5.228;2024-03-02T08:23:09;100199.0;;;8.19;100.0
77749;BME280;66938;52.084;5.228;2024-03-02T08:24:45;100194.0;;;8.27;100.0
77749;BME280;66938;52.084;5.228;2024-03-02T08:27:57;100194.0;;;8.32;100.0
77749;BME280;66938;52.084;5.228;2024-03-02T08:29:33;100191.0;;;8.39;100.0
77749;BME280;66938;52.084;5.228;2024-03-02T08:31:10;100188.0;;;8.33;100.0
77749;BME280;66938;52.084;5.228;2024-03-02T08:34:25;100188.0;;;8.5;100.0
77749;BME280;66938;52.084;5.228;2024-03-02T08:36:01;100191.0;;;8.36;100.0
77749;BME280;66938;52.084;5.228;2024-03-02T08:37:39;100188.0;;;8.38;100.0
77749;BME280;66938;52.084;5.228;2024-03-02T08:39:18;100182.0;;;8.42;100.0
77749;BME280;66938;52.084;5.228;2024-03-02T08:42:29;100180.0;;;8.48;100.0
77749;BME280;66938;52.084;5.228;2024-03-02T08:44:05;100187.0;;;8.57;100.0
77749;BME280;66938;52.084;5.228;2024-03-02T08:45:42;100181.0;;;8.75;100.0
77749;BME280;66938;52.084;5.228;2024-03-02T08:48:55;100177.0;;;8.65;100.0
77749;BME280;66938;52.084;5.228;2024-03-02T08:50:31;100174.0;;;8.68;100.0
77749;BME280;66938;52.084;5.228;2024-03-02T08:52:07;100180.0;;;8.89;100.0
77749;BME280;66938;52.084;5.228;2024-03-02T08:53:43;100178.0;;;8.81;100.0
77749;BME280;66938;52.084;5.228;2024-03-02T08:56:55;100183.0;;;8.85;100.0
77749;BME280;66938;52.084;5.228;2024-03-02T08:58:31;100185.0;;;8.89;100.0
77749;BME280;66938;52.084;5.228;2024-03-02T09:00:08;100186.0;;;8.94;100.0
77749;BME280;66938;52.084;5.228;2024-03-02T09:03:20;100188.0;;;9.1;100.0
77749;BME280;66938;52.084;5.228;2024-03-02T09:04:57;100189.0;;;9.08;100.0
77749;BME280;66938;52.084;5.228;2024-03-02T09:06:33;100193.0;;;9.02;100.0
77749;BME280;66938;52.084;5.228;2024-03-02T09:09:45;100196.0;;;9.06;100.0
77749;BME280;66938;52.084;5.228;2024-03-02T09:11:21;100197.0;;;9.22;100.0
77749;BME280;66938;52.084;5.228;2024-03-02T09:12:58;100195.0;;;9.13;100.0
77749;BME280;66938;52.084;5.228;2024-03-02T09:16:12;100197.0;;;9.22;100.0
77749;BME280;66938;52.084;5.228;2024-03-02T09:17:48;100205.0;;;9.24;100.0
77749;BME280;66938;52.084;5.228;2024-03-02T09:19:24;100198.0;;;9.35;100.0
77749;BME280;66938;52.084;5.228;2024-03-02T09:21:00;100199.0;;;9.47;100.0
77749;BME280;66938;52.084;5.228;2024-03-02T09:24:12;100196.0;;;9.56;100.0
77749;BME280;66938;52.084;5.228;2024-03-02T09:25:48;100203.0;;;9.47;100.0
77749;BME280;66938;52.084;5.228;2024-03-02T09:27:24;100200.0;;;9.6;100.0
77749;BME280;66938;52.084;5.228;2024-03-02T09:30:36;100203.0;;;9.81;100.0
77749;BME280;66938;52.084;5.228;2024-03-02T09:32:13;100198.0;;;9.71;100.0
77749;BME280;66938;52.084;5.228;2024-03-02T09:33:50;100207.0;;;9.76;100.0
77749;BME280;66938;52.084;5.228;2024-03-02T09:37:02;100206.0;;;9.72;100.0
77749;BME280;66938;52.084;5.228;2024-03-02T09:38:38;100211.0;;;9.88;98.53
77749;BME280;66938;52.084;5.228;2024-03-02T09:40:14;100206.0;;;9.98;100.0
77749;BME280;66938;52.084;5.228;2024-03-02T09:41:50;100211.0;;;9.98;100.0
77749;BME280;66938;52.084;5.228;2024-03-02T09:45:03;100200.0;;;9.99;98.54
77749;BME280;66938;52.084;5.228;2024-03-02T09:46:39;100206.0;;;10.13;98.25
77749;BME280;66938;52.084;5.228;2024-03-02T09:48:15;100196.0;;;10.35;99.69
77749;BME280;66938;52.084;5.228;2024-03-02T09:51:28;100196.0;;;10.28;98.8
77749;BME280;66938;52.084;5.228;2024-03-02T09:53:04;100197.0;;;10.41;97.43
77749;BME280;66938;52.084;5.228;2024-03-02T09:54:41;100199.0;;;10.36;94.71
77749;BME280;66938;52.084;5.228;2024-03-02T09:57:53;100197.0;;;10.47;91.53
77749;BME280;66938;52.084;5.228;2024-03-02T09:59:29;100197.0;;;10.6;93.38
77749;BME280;66938;52.084;5.228;2024-03-02T10:01:05;100194.0;;;10.46;90.55
77749;BME280;66938;52.084;5.228;2024-03-02T10:04:18;100194.0;;;10.59;92.31
77749;BME280;66938;52.084;5.228;2024-03-02T10:05:54;100203.0;;;10.58;88.05
77749;BME280;66938;52.084;5.228;2024-03-02T10:07:30;100195.0;;;10.61;89.22
77749;BME280;66938;52.084;5.228;2024-03-02T10:09:06;100195.0;;;10.7;87.3
77749;BME280;66938;52.084;5.228;2024-03-02T10:12:18;100194.0;;;10.67;90.47
77749;BME280;66938;52.084;5.228;2024-03-02T10:14:04;100209.0;;;10.83;91.65
77749;BME280;66938;52.084;5.228;2024-03-02T10:15:44;100205.0;;;10.79;86.48
77749;BME280;66938;52.084;5.228;2024-03-02T10:18:57;100207.0;;;10.83;84.41
77749;BME280;66938;52.084;5.228;2024-03-02T10:20:32;100207.0;;;10.87;84.41
77749;BME280;66938;52.084;5.228;2024-03-02T10:22:09;100203.0;;;10.93;84.0
77749;BME280;66938;52.084;5.228;2024-03-02T10:23:46;100203.0;;;10.93;82.95
77749;BME280;66938;52.084;5.228;2024-03-02T10:27:07;100194.0;;;10.95;83.22
77749;BME280;66938;52.084;5.228;2024-03-02T10:28:46;100190.0;;;10.89;82.36
77749;BME280;66938;52.084;5.228;2024-03-02T10:30:23;100193.0;;;10.75;79.66
77749;BME280;66938;52.084;5.228;2024-03-02T10:33:39;100198.0;;;10.59;79.3
77749;BME280;66938;52.084;5.228;2024-03-02T10:35:16;100197.0;;;10.65;80.83
77749;BME280;66938;52.084;5.228;2024-03-02T10:36:53;100193.0;;;10.79;79.69
77749;BME280;66938;52.084;5.228;2024-03-02T10:38:31;100187.0;;;11.02;81.81
77749;BME280;66938;52.084;5.228;2024-03-02T10:41:47;100188.0;;;10.95;77.77
77749;BME280;66938;52.084;5.228;2024-03-02T10:43:28;100182.0;;;11.05;82.95
77749;BME280;66938;52.084;5.228;2024-03-02T10:45:06;100178.0;;;11.11;79.44
77749;BME280;66938;52.084;5.228;2024-03-02T10:46:45;100175.0;;;11.15;77.28
77749;BME280;66938;52.084;5.228;2024-03-02T10:50:04;100178.0;;;11.21;80.31
77749;BME280;66938;52.084;5.228;2024-03-02T10:51:41;100175.0;;;11.19;76.69
77749;BME280;66938;52.084;5.228;2024-03-02T10:53:18;100173.0;;;11.46;77.27
77749;BME280;66938;52.084;5.228;2024-03-02T10:56:31;100166.0;;;11.5;75.58
77749;BME280;66938;52.084;5.228;2024-03-02T10:58:12;100160.0;;;11.51;73.74
77749;BME280;66938;52.084;5.228;2024-03-02T10:59:52;100163.0;;;11.48;76.02
77749;BME280;66938;52.084;5.228;2024-03-02T11:01:32;100162.0;;;11.35;71.87
77749;BME280;66938;52.084;5.228;2024-03-02T11:04:49;100168.0;;;11.4;71.83
77749;BME280;66938;52.084;5.228;2024-03-02T11:06:28;100159.0;;;11.63;74.69
77749;BME280;66938;52.084;5.228;2024-03-02T11:08:07;100160.0;;;11.75;74.64
77749;BME280;66938;52.084;5.228;2024-03-02T11:09:51;100161.0;;;11.51;69.56
77749;BME280;66938;52.084;5.228;2024-03-02T11:13:12;100169.0;;;11.45;70.77
77749;BME280;66938;52.084;5.228;2024-03-02T11:14:50;100168.0;;;11.62;70.74